createdAt,value
2023-04-24T00:01:59.323Z,93.88
2023-04-24T00:04:28.992Z,94.13
2023-04-24T00:06:58.343Z,93.87
2023-04-24T00:09:27.033Z,94.38
2023-04-24T00:11:55.873Z,95.32
2023-04-24T00:14:24.018Z,95.27
2023-04-24T00:16:52.768Z,94.39
2023-04-24T00:19:22.429Z,94.68
2023-04-24T00:21:52.551Z,94.84
2023-04-24T00:24:20.684Z,94.20
2023-04-24T00:26:48.979Z,95.86
2023-04-24T00:29:17.280Z,97.36
2023-04-24T00:31:45.503Z,96.64
2023-04-24T00:34:13.760Z,97.25
2023-04-24T00:36:42.253Z,96.30
2023-04-24T00:39:11.629Z,95.24
2023-04-24T00:41:39.863Z,95.12
2023-04-24T00:44:08.388Z,95.54
2023-04-24T00:46:38.225Z,97.17
2023-04-24T00:49:07.120Z,96.06
2023-04-24T00:51:35.543Z,95.44
2023-04-24T00:54:03.753Z,94.97
2023-04-24T00:56:33.356Z,95.78
2023-04-24T00:59:02.026Z,94.76
2023-04-24T01:01:31.399Z,95.56
2023-04-24T01:04:00.513Z,95.55
2023-04-24T01:06:32.265Z,95.25
2023-04-24T01:09:01.420Z,94.54
2023-04-24T01:11:33.069Z,94.90
2023-04-24T01:14:02.248Z,94.01
2023-04-24T01:16:30.419Z,93.46
2023-04-24T01:18:59.043Z,93.13
2023-04-24T01:21:29.824Z,92.96
2023-04-24T01:24:00.446Z,93.39
2023-04-24T01:26:28.834Z,93.29
2023-04-24T01:28:57.794Z,93.34
2023-04-24T01:31:26.443Z,93.04
2023-04-24T01:33:54.927Z,94.19
2023-04-24T01:36:26.557Z,93.42
2023-04-24T01:38:56.045Z,93.51
2023-04-24T01:41:25.947Z,94.22
2023-04-24T01:43:54.522Z,93.79
2023-04-24T01:46:22.751Z,94.08
2023-04-24T01:48:51.300Z,94.46
2023-04-24T01:51:21.465Z,94.04
2023-04-24T01:53:49.990Z,94.02
2023-04-24T01:56:18.201Z,94.21
2023-04-24T01:58:47.973Z,94.79
2023-04-24T02:01:19.970Z,94.99
2023-04-24T02:03:49.859Z,94.65
2023-04-24T02:06:18.116Z,94.84
2023-04-24T02:08:46.385Z,94.79
2023-04-24T02:11:14.601Z,94.47
2023-04-24T02:13:42.714Z,93.78
2023-04-24T02:16:12.531Z,93.66
2023-04-24T02:18:40.857Z,93.47
2023-04-24T02:21:09.074Z,93.17
2023-04-24T02:23:37.268Z,93.03
2023-04-24T02:26:07.056Z,93.08
2023-04-24T02:28:35.411Z,93.01
2023-04-24T02:31:03.431Z,92.94
2023-04-24T02:33:33.067Z,93.48
2023-04-24T02:36:01.666Z,93.37
2023-04-24T02:38:29.812Z,91.89
2023-04-24T02:40:58.080Z,91.40
2023-04-24T02:43:28.100Z,92.10
2023-04-24T02:45:56.400Z,92.12
2023-04-24T02:48:24.743Z,92.17
2023-04-24T02:50:54.495Z,92.18
2023-04-24T02:53:22.769Z,90.78
2023-04-24T02:55:50.915Z,91.00
2023-04-24T02:58:21.010Z,90.61
2023-04-24T03:00:49.346Z,91.78
2023-04-24T03:03:17.866Z,91.98
2023-04-24T03:05:46.855Z,91.98
2023-04-24T03:08:18.000Z,92.51
2023-04-24T03:10:48.186Z,92.97
2023-04-24T03:13:17.913Z,93.25
2023-04-24T03:15:47.592Z,93.00
2023-04-24T03:18:15.930Z,93.14
2023-04-24T03:20:47.470Z,92.28
2023-04-24T03:23:17.552Z,92.90
2023-04-24T03:25:46.397Z,92.86
2023-04-24T03:28:15.003Z,92.87
2023-04-24T03:30:51.107Z,92.83
2023-04-24T03:33:20.313Z,93.20
2023-04-24T03:35:58.213Z,93.51
2023-04-24T03:38:28.436Z,93.44
2023-04-24T03:41:03.084Z,93.52
2023-04-24T03:43:38.048Z,93.92
2023-04-24T03:46:08.202Z,93.87
2023-04-24T03:48:40.255Z,94.13
2023-04-24T03:51:10.868Z,94.77
2023-04-24T03:53:42.912Z,95.16
2023-04-24T03:56:13.165Z,95.70
2023-04-24T03:58:42.547Z,96.11
2023-04-24T04:01:12.729Z,96.54
2023-04-24T04:03:56.727Z,96.80
2023-04-24T04:06:28.107Z,96.76
2023-04-24T04:08:58.999Z,96.48
2023-04-24T04:11:27.649Z,96.86
2023-04-24T04:13:55.810Z,96.81
2023-04-24T04:16:24.353Z,97.05
2023-04-24T04:18:58.357Z,96.91
2023-04-24T04:21:28.234Z,97.64
2023-04-24T04:24:09.659Z,97.72
2023-04-24T04:26:48.289Z,97.62
2023-04-24T04:29:27.422Z,97.81
2023-04-24T04:31:56.379Z,96.95
2023-04-24T04:34:25.528Z,97.00
2023-04-24T04:36:53.876Z,96.94
2023-04-24T04:39:37.762Z,96.87
2023-04-24T04:42:09.171Z,95.96
2023-04-24T04:44:42.096Z,95.68
2023-04-24T04:47:14.590Z,95.26
2023-04-24T04:49:44.505Z,94.92
2023-04-24T04:52:21.068Z,94.49
2023-04-24T04:54:55.780Z,95.19
2023-04-24T04:57:29.561Z,95.31
2023-04-24T04:59:58.047Z,95.39
2023-04-24T05:02:39.253Z,95.27
2023-04-24T05:05:09.946Z,95.23
2023-04-24T05:07:38.403Z,94.67
2023-04-24T05:10:09.864Z,94.43
2023-04-24T05:12:38.140Z,94.13
2023-04-24T05:15:07.229Z,94.14
2023-04-24T05:17:35.872Z,93.95
2023-04-24T05:20:06.476Z,94.08
2023-04-24T05:22:35.528Z,94.53
2023-04-24T05:25:04.800Z,94.42
2023-04-24T05:27:46.885Z,94.24
2023-04-24T05:30:17.536Z,94.80
2023-04-24T05:32:45.796Z,94.13
2023-04-24T05:35:15.033Z,94.44
2023-04-24T05:37:43.223Z,94.51
2023-04-24T05:40:13.116Z,93.87
2023-04-24T05:42:41.484Z,93.32
2023-04-24T05:45:17.385Z,92.94
2023-04-24T05:47:46.142Z,91.96
2023-04-24T05:50:14.774Z,92.37
2023-04-24T05:52:43.096Z,91.59
2023-04-24T05:55:24.331Z,91.56
2023-04-24T05:57:53.331Z,91.08
2023-04-24T06:00:23.815Z,92.18
2023-04-24T06:03:00.692Z,92.10
2023-04-24T06:05:29.550Z,91.39
2023-04-24T06:07:57.853Z,90.53
2023-04-24T06:10:29.536Z,90.75
2023-04-24T06:13:01.379Z,91.12
2023-04-24T06:15:33.099Z,91.17
2023-04-24T06:18:13.799Z,91.29
2023-04-24T06:20:43.579Z,89.77
2023-04-24T06:23:11.846Z,88.10
2023-04-24T06:25:40.792Z,88.75
2023-04-24T06:28:08.941Z,89.29
2023-04-24T06:30:38.821Z,89.97
2023-04-24T06:33:19.417Z,89.60
2023-04-24T06:35:49.085Z,89.34
2023-04-24T06:38:17.618Z,90.44
2023-04-24T06:40:45.995Z,90.79
2023-04-24T06:43:15.973Z,89.71
2023-04-24T06:45:46.377Z,89.15
2023-04-24T06:48:14.690Z,88.37
2023-04-24T06:50:42.945Z,88.28
2023-04-24T06:53:13.881Z,88.79
2023-04-24T06:55:43.011Z,88.33
2023-04-24T06:58:11.864Z,87.73
2023-04-24T07:00:40.229Z,87.93
2023-04-24T07:03:10.155Z,86.04
2023-04-24T07:05:39.326Z,85.52
2023-04-24T07:08:07.900Z,86.22
2023-04-24T07:10:36.820Z,86.19
2023-04-24T07:13:05.221Z,87.11
2023-04-24T07:15:33.759Z,86.72
2023-04-24T07:18:04.864Z,86.01
2023-04-24T07:20:35.772Z,85.22
2023-04-24T07:23:04.646Z,84.52
2023-04-24T07:25:32.993Z,84.62
2023-04-24T07:28:01.486Z,84.86
2023-04-24T07:30:30.452Z,86.20
2023-04-24T07:32:59.987Z,85.41
2023-04-24T07:35:28.351Z,83.28
2023-04-24T07:37:58.494Z,83.09
2023-04-24T07:40:26.818Z,81.09
2023-04-24T07:42:54.864Z,81.89
2023-04-24T07:45:24.175Z,80.95
2023-04-24T07:47:53.104Z,81.18
2023-04-24T07:50:22.092Z,79.68
2023-04-24T07:52:50.510Z,78.64
2023-04-24T07:55:22.844Z,81.10
2023-04-24T07:57:53.314Z,82.07
2023-04-24T08:00:22.045Z,82.06
2023-04-24T08:02:50.670Z,83.24
2023-04-24T08:05:19.316Z,82.31
2023-04-24T08:07:49.770Z,82.77
2023-04-24T08:10:18.196Z,81.94
2023-04-24T08:12:48.078Z,81.34
2023-04-24T08:15:16.951Z,81.09
2023-04-24T08:17:45.350Z,80.68
2023-04-24T08:20:14.797Z,78.77
2023-04-24T08:22:43.670Z,78.62
2023-04-24T08:25:12.921Z,79.96
2023-04-24T08:27:41.430Z,79.32
2023-04-24T08:30:11.941Z,80.50
2023-04-24T08:32:40.208Z,81.99
2023-04-24T08:35:10.776Z,80.91
2023-04-24T08:37:39.176Z,77.67
2023-04-24T08:40:14.157Z,77.50
2023-04-24T08:42:44.374Z,76.23
2023-04-24T08:45:15.604Z,78.21
2023-04-24T08:47:45.542Z,77.66
2023-04-24T08:50:13.914Z,78.38
2023-04-24T08:52:44.149Z,79.89
2023-04-24T08:55:12.238Z,77.60
2023-04-24T08:57:42.307Z,78.22
2023-04-24T09:00:12.338Z,78.53
2023-04-24T09:02:45.720Z,78.95
2023-04-24T09:05:15.516Z,76.69
2023-04-24T09:07:47.115Z,75.43
2023-04-24T09:10:16.196Z,75.63
2023-04-24T09:12:44.519Z,74.24
2023-04-24T09:15:13.775Z,71.56
2023-04-24T09:17:43.823Z,72.30
2023-04-24T09:20:12.869Z,71.56
2023-04-24T09:22:41.855Z,64.66
2023-04-24T09:25:13.559Z,68.61
2023-04-24T09:27:47.100Z,70.72
2023-04-24T09:30:16.549Z,65.99
2023-04-24T09:32:46.147Z,67.18
2023-04-24T09:35:16.116Z,68.11
2023-04-24T09:37:45.939Z,68.40
2023-04-24T09:40:16.853Z,71.31
2023-04-24T09:42:49.048Z,72.74
2023-04-24T09:45:17.354Z,72.79
2023-04-24T09:47:46.926Z,68.82
2023-04-24T09:50:17.161Z,69.39
2023-04-24T09:52:48.533Z,67.08
2023-04-24T09:55:20.037Z,68.50
2023-04-24T09:57:55.990Z,67.39
2023-04-24T10:00:26.347Z,66.50
2023-04-24T10:03:01.771Z,63.93
2023-04-24T10:05:31.293Z,66.86
2023-04-24T10:08:02.825Z,66.46
2023-04-24T10:10:31.348Z,67.08
2023-04-24T10:13:00.215Z,68.52
2023-04-24T10:15:29.292Z,67.02
2023-04-24T10:18:01.828Z,66.30
2023-04-24T10:20:32.402Z,68.29
2023-04-24T10:23:02.542Z,67.99
2023-04-24T10:25:32.886Z,67.91
2023-04-24T10:28:02.210Z,69.22
2023-04-24T10:30:35.964Z,68.91
2023-04-24T10:33:07.300Z,68.10
2023-04-24T10:35:39.870Z,68.60
2023-04-24T10:38:11.314Z,71.38
2023-04-24T10:40:39.879Z,72.49
2023-04-24T10:43:12.140Z,72.85
2023-04-24T10:45:41.064Z,76.90
2023-04-24T10:48:15.133Z,78.77
2023-04-24T10:50:48.864Z,79.93
2023-04-24T10:53:19.698Z,82.00
2023-04-24T10:55:50.431Z,81.76
2023-04-24T10:58:24.348Z,81.83
2023-04-24T11:00:59.416Z,83.35
2023-04-24T11:03:31.028Z,82.14
2023-04-24T11:06:01.978Z,81.98
2023-04-24T11:08:32.722Z,83.04
2023-04-24T11:11:06.461Z,81.52
2023-04-24T11:14:10.799Z,82.57
2023-04-24T11:16:46.753Z,81.03
2023-04-24T11:19:25.894Z,81.58
2023-04-24T11:22:00.813Z,81.42
2023-04-24T11:24:34.406Z,79.42
2023-04-24T11:27:14.971Z,79.26
2023-04-24T11:29:45.545Z,78.85
2023-04-24T11:32:21.324Z,80.84
2023-04-24T11:34:53.214Z,79.83
2023-04-24T11:37:21.697Z,78.62
2023-04-24T11:39:54.161Z,76.60
2023-04-24T11:42:24.080Z,76.95
2023-04-24T11:44:55.021Z,78.96
2023-04-24T11:47:30.227Z,77.25
2023-04-24T11:50:01.655Z,76.90
2023-04-24T11:52:31.208Z,74.86
2023-04-24T11:55:00.374Z,73.19
2023-04-24T11:57:34.655Z,73.27
2023-04-24T12:00:04.586Z,74.18
2023-04-24T12:02:41.041Z,73.78
2023-04-24T12:05:13.262Z,71.50
2023-04-24T12:07:44.807Z,72.03
2023-04-24T12:10:13.673Z,71.16
2023-04-24T12:12:41.783Z,68.98
2023-04-24T12:15:11.177Z,68.82
2023-04-24T12:17:44.398Z,68.62
2023-04-24T12:20:15.948Z,69.18
2023-04-24T12:22:48.537Z,69.22
2023-04-24T12:25:19.026Z,68.31
2023-04-24T12:27:48.264Z,70.02
2023-04-24T12:30:18.416Z,64.78
2023-04-24T12:32:48.954Z,63.69
2023-04-24T12:35:23.527Z,66.13
2023-04-24T12:37:51.948Z,64.93
2023-04-24T12:40:22.168Z,62.49
2023-04-24T12:42:51.588Z,60.99
2023-04-24T12:45:21.079Z,61.13
2023-04-24T12:47:50.949Z,58.98
2023-04-24T12:50:19.307Z,58.19
2023-04-24T12:52:49.003Z,58.93
2023-04-24T12:55:17.313Z,60.91
2023-04-24T12:57:45.685Z,59.28
2023-04-24T13:00:15.050Z,58.62
2023-04-24T13:02:43.480Z,61.42
2023-04-24T13:05:12.795Z,61.75
2023-04-24T13:07:41.143Z,61.08
2023-04-24T13:10:12.264Z,62.06
2023-04-24T13:12:41.294Z,60.17
2023-04-24T13:15:10.259Z,59.32
2023-04-24T13:17:39.016Z,62.31
2023-04-24T13:20:08.262Z,63.65
2023-04-24T13:22:36.449Z,62.43
2023-04-24T13:25:07.315Z,61.56
2023-04-24T13:27:37.070Z,64.16
2023-04-24T13:30:05.969Z,65.24
2023-04-24T13:32:36.443Z,67.61
2023-04-24T13:35:05.590Z,69.26
2023-04-24T13:37:34.356Z,72.59
2023-04-24T13:40:02.914Z,76.44
2023-04-24T13:42:31.199Z,74.72
2023-04-24T13:45:06.079Z,80.30
2023-04-24T13:47:42.972Z,85.61
2023-04-24T13:51:25.747Z,87.70
2023-04-24T13:54:19.831Z,79.63
2023-04-24T13:56:48.484Z,79.35
2023-04-24T13:59:16.742Z,83.46
2023-04-24T14:01:47.159Z,86.04
2023-04-24T14:04:15.701Z,87.23
2023-04-24T14:06:44.070Z,87.93
2023-04-24T14:09:12.446Z,86.84
2023-04-24T14:11:40.648Z,88.56
2023-04-24T14:14:09.052Z,88.44
2023-04-24T14:16:37.402Z,89.52
2023-04-24T14:19:07.382Z,89.86
2023-04-24T14:21:35.815Z,89.80
2023-04-24T14:24:04.875Z,88.12
2023-04-24T14:26:33.248Z,88.36
2023-04-24T14:29:11.471Z,86.34
2023-04-24T14:31:43.569Z,89.51
2023-04-24T14:34:16.220Z,88.44
2023-04-24T14:36:44.663Z,84.48
2023-04-24T14:39:13.342Z,85.42
2023-04-24T14:41:41.413Z,83.07
2023-04-24T14:44:09.583Z,84.57
2023-04-24T14:46:38.401Z,84.83
2023-04-24T14:49:06.718Z,85.71
2023-04-24T14:51:36.172Z,86.83
2023-04-24T14:54:04.688Z,86.38
2023-04-24T14:56:33.687Z,86.48
2023-04-24T14:59:02.002Z,86.25
2023-04-24T15:01:30.426Z,83.30
2023-04-24T15:03:58.652Z,83.98
2023-04-24T15:06:26.852Z,83.60
2023-04-24T15:08:56.883Z,83.67
2023-04-24T15:11:25.082Z,84.25
2023-04-24T15:13:53.556Z,82.53
2023-04-24T15:16:21.915Z,81.16
2023-04-24T15:18:50.011Z,79.83
2023-04-24T15:21:18.310Z,71.98
2023-04-24T15:23:46.699Z,67.69
2023-04-24T15:26:16.769Z,68.03
2023-04-24T15:28:45.261Z,67.24
2023-04-24T15:31:13.653Z,63.20
2023-04-24T15:33:41.835Z,62.89
2023-04-24T15:36:10.439Z,60.37
2023-04-24T15:38:39.173Z,62.97
2023-04-24T15:41:07.629Z,61.56
2023-04-24T15:43:40.152Z,56.55
2023-04-24T15:46:09.704Z,56.00
2023-04-24T15:48:39.985Z,56.04
2023-04-24T15:51:08.534Z,55.44
2023-04-24T15:53:36.709Z,53.81
2023-04-24T15:56:05.564Z,49.46
2023-04-24T15:58:33.886Z,53.28
2023-04-24T16:01:03.897Z,53.40
2023-04-24T16:03:33.311Z,54.65
2023-04-24T16:06:02.345Z,52.22
2023-04-24T16:08:30.459Z,51.51
2023-04-24T16:10:58.962Z,52.29
2023-04-24T16:13:29.157Z,52.05
2023-04-24T16:15:57.511Z,53.69
2023-04-24T16:18:27.185Z,55.22
2023-04-24T16:20:55.332Z,52.95
2023-04-24T16:23:23.853Z,52.64
2023-04-24T16:25:52.200Z,51.69
2023-04-24T16:28:20.435Z,51.48
2023-04-24T16:30:48.581Z,53.07
2023-04-24T16:33:16.710Z,52.45
2023-04-24T16:35:46.815Z,54.00
2023-04-24T16:38:15.146Z,54.15
2023-04-24T16:40:43.461Z,54.08
2023-04-24T16:43:11.517Z,53.10
2023-04-24T16:45:39.780Z,54.29
2023-04-24T16:48:11.181Z,55.12
2023-04-24T16:50:39.899Z,53.22
2023-04-24T16:53:09.429Z,55.20
2023-04-24T16:55:39.116Z,56.15
2023-04-24T16:58:11.294Z,55.15
2023-04-24T17:00:39.630Z,54.88
2023-04-24T17:03:09.785Z,52.72
2023-04-24T17:05:39.480Z,53.29
2023-04-24T17:08:09.498Z,56.94
2023-04-24T17:10:37.797Z,57.33
2023-04-24T17:13:05.844Z,56.73
2023-04-24T17:15:34.456Z,57.24
2023-04-24T17:18:03.080Z,58.76
2023-04-24T17:20:31.745Z,58.19
2023-04-24T17:22:59.790Z,58.35
2023-04-24T17:25:29.859Z,56.95
2023-04-24T17:27:58.040Z,58.00
2023-04-24T17:30:26.490Z,57.99
2023-04-24T17:32:54.829Z,60.49
2023-04-24T17:35:23.091Z,58.81
2023-04-24T17:37:51.311Z,61.12
2023-04-24T17:40:19.469Z,59.89
2023-04-24T17:42:49.230Z,60.69
2023-04-24T17:45:17.483Z,60.04
2023-04-24T17:47:45.670Z,59.97
2023-04-24T17:50:14.315Z,60.43
2023-04-24T17:52:42.454Z,60.65
2023-04-24T17:55:11.119Z,60.83
2023-04-24T17:57:39.408Z,61.07
2023-04-24T18:00:10.578Z,61.10
2023-04-24T18:02:38.955Z,60.50
2023-04-24T18:05:07.551Z,62.46
2023-04-24T18:07:36.141Z,61.37
2023-04-24T18:10:04.254Z,61.85
2023-04-24T18:12:32.523Z,63.19
2023-04-24T18:15:13.233Z,61.22
2023-04-24T18:17:43.922Z,61.97
2023-04-24T18:20:12.955Z,62.33
2023-04-24T18:22:41.917Z,64.05
2023-04-24T18:25:11.339Z,63.81
2023-04-24T18:27:40.595Z,64.86
2023-04-24T18:30:14.155Z,64.04
2023-04-24T18:32:43.892Z,64.08
2023-04-24T18:35:12.148Z,63.91
2023-04-24T18:37:40.685Z,63.03
2023-04-24T18:40:10.385Z,63.85
2023-04-24T18:42:38.628Z,62.65
2023-04-24T18:45:07.901Z,64.35
2023-04-24T18:47:36.824Z,63.92
2023-04-24T18:50:07.499Z,65.33
2023-04-24T18:52:35.737Z,65.15
2023-04-24T18:55:06.703Z,65.14
2023-04-24T18:57:35.399Z,66.15
2023-04-24T19:00:04.607Z,66.57
2023-04-24T19:02:35.023Z,66.51
2023-04-24T19:05:03.492Z,67.21
2023-04-24T19:07:34.306Z,68.13
2023-04-24T19:10:02.916Z,67.98
2023-04-24T19:12:31.156Z,67.76
2023-04-24T19:15:00.230Z,68.38
2023-04-24T19:17:28.363Z,67.85
2023-04-24T19:19:56.718Z,68.16
2023-04-24T19:22:25.720Z,69.01
2023-04-24T19:24:55.237Z,69.53
2023-04-24T19:27:23.306Z,69.96
2023-04-24T19:29:52.157Z,71.46
2023-04-24T19:32:20.776Z,70.61
2023-04-24T19:34:48.968Z,71.72
2023-04-24T19:37:17.242Z,70.95
2023-04-24T19:39:45.400Z,67.69
2023-04-24T19:42:14.900Z,67.82
2023-04-24T19:44:43.332Z,68.95
2023-04-24T19:47:13.117Z,69.30
2023-04-24T19:49:41.684Z,69.22
2023-04-24T19:52:09.871Z,68.22
2023-04-24T19:54:37.971Z,70.27
2023-04-24T19:57:06.749Z,69.60
2023-04-24T19:59:36.763Z,68.46
2023-04-24T20:02:05.281Z,70.24
2023-04-24T20:04:33.597Z,69.71
2023-04-24T20:07:02.186Z,70.32
2023-04-24T20:09:32.961Z,69.79
2023-04-24T20:12:01.689Z,69.92
2023-04-24T20:14:29.789Z,70.35
2023-04-24T20:16:59.558Z,70.14
2023-04-24T20:19:27.695Z,70.26
2023-04-24T20:21:56.105Z,70.58
2023-04-24T20:24:24.378Z,71.00
2023-04-24T20:26:52.444Z,71.72
2023-04-24T20:29:20.493Z,71.63
2023-04-24T20:31:48.639Z,70.29
2023-04-24T20:34:18.292Z,71.65
2023-04-24T20:36:49.566Z,71.19
2023-04-24T20:39:18.109Z,71.49
2023-04-24T20:41:47.600Z,71.63
2023-04-24T20:44:15.792Z,71.65
2023-04-24T20:46:44.178Z,71.38
2023-04-24T20:49:12.332Z,70.60
2023-04-24T20:51:41.778Z,71.34
2023-04-24T20:54:09.896Z,70.88
2023-04-24T20:56:38.056Z,71.47
2023-04-24T20:59:07.117Z,72.45
2023-04-24T21:01:35.281Z,71.44
2023-04-24T21:04:03.812Z,73.53
2023-04-24T21:06:33.698Z,73.38
2023-04-24T21:09:03.366Z,73.96
2023-04-24T21:11:31.942Z,75.14
2023-04-24T21:14:00.214Z,73.56
2023-04-24T21:16:29.030Z,74.46
2023-04-24T21:18:57.214Z,74.82
2023-04-24T21:21:25.554Z,74.45
2023-04-24T21:23:53.927Z,75.46
2023-04-24T21:26:23.811Z,75.21
2023-04-24T21:28:52.651Z,75.10
2023-04-24T21:31:20.887Z,75.41
2023-04-24T21:33:49.882Z,75.65
2023-04-24T21:36:18.575Z,76.55
2023-04-24T21:38:46.778Z,75.99
2023-04-24T21:41:15.025Z,76.57
2023-04-24T21:43:46.228Z,75.95
2023-04-24T21:46:15.547Z,76.11
2023-04-24T21:48:43.773Z,75.17
2023-04-24T21:51:13.037Z,75.60
2023-04-24T21:53:41.532Z,74.05
2023-04-24T21:56:09.697Z,73.80
2023-04-24T21:58:38.921Z,74.82
2023-04-24T22:01:08.699Z,74.47
2023-04-24T22:03:36.992Z,74.34
2023-04-24T22:06:05.771Z,74.20
2023-04-24T22:08:34.054Z,75.78
2023-04-24T22:11:02.246Z,75.46
2023-04-24T22:13:30.756Z,76.33
2023-04-24T22:15:59.134Z,76.59
2023-04-24T22:18:46.057Z,76.31
2023-04-24T22:21:15.593Z,76.64
2023-04-24T22:23:44.076Z,76.93
2023-04-24T22:26:12.339Z,77.32
2023-04-24T22:28:40.508Z,77.41
2023-04-24T22:31:09.222Z,76.71
2023-04-24T22:33:39.079Z,77.97
2023-04-24T22:36:07.923Z,77.56
2023-04-24T22:38:35.968Z,78.47
2023-04-24T22:41:04.233Z,77.57
2023-04-24T22:43:32.587Z,77.28
2023-04-24T22:46:00.888Z,77.90
2023-04-24T22:48:29.410Z,78.86
2023-04-24T22:50:58.914Z,79.63
2023-04-24T22:53:27.770Z,79.15
2023-04-24T22:55:56.322Z,80.53
2023-04-24T22:58:25.767Z,81.00
2023-04-24T23:00:53.975Z,80.68
2023-04-24T23:03:22.305Z,82.37
2023-04-24T23:05:50.680Z,83.07
2023-04-24T23:08:20.253Z,83.51
2023-04-24T23:10:48.925Z,83.66
2023-04-24T23:13:17.317Z,83.22
2023-04-24T23:15:46.153Z,84.22
2023-04-24T23:18:14.215Z,84.88
2023-04-24T23:20:42.408Z,84.96
2023-04-24T23:23:10.383Z,85.25
2023-04-24T23:25:40.051Z,85.97
2023-04-24T23:28:08.117Z,85.94
2023-04-24T23:30:36.397Z,86.17
2023-04-24T23:33:04.925Z,86.13
2023-04-24T23:35:33.275Z,86.64
2023-04-24T23:38:01.687Z,86.80
2023-04-24T23:40:29.900Z,86.90
2023-04-24T23:43:06.904Z,86.87
2023-04-24T23:45:37.117Z,87.18
2023-04-24T23:48:06.107Z,87.33
2023-04-24T23:50:34.509Z,87.41
2023-04-24T23:53:02.871Z,87.15
2023-04-24T23:55:31.102Z,86.99
2023-04-24T23:58:00.538Z,87.54
